Aeroporto :
LOGIN :

Iscrizione | Disclaimer

   EN    FR    IT 

 










Sommario :    VFR   VFR Marginale   IFR   IFR Intensivo   IFR Molto Intensivo
Visibilità : 
Base nubi : 
>= 8 km
>= 3000ft
5 / 8 km
1000 / 3000 ft
1500m / 5 km
500 / 1000 ft
800 / 1500m
200 / 500 ft
< 800m
< 200 ft
Simboli :   Temporali  Nebbia  Neve Forte  Precipitazioni Forti  Vento > 20 kt
SIGMETs :   Varie  Temporali  Ghiacco  Turbolenza  Onda orograficha  Ceneri Vulcaniche






- Altitudine del aeroporto : 622 ft
- Codice IATA : BRS


EGGD - Bristol Int.

ULTIMO METAR :
  • 172150Z AUTO 25008KT 9999 BKN020 BKN029 04/02 Q1017

METARs OBSOLETI :
  • 172120Z AUTO 27010KT 9999 SCT027 BKN036 BKN049 05/02 Q1017
  • 172050Z AUTO 26012KT 9999 NCD 04/02 Q1016
  • 172020Z AUTO 26012KT 9999 FEW013 BKN018 05/03 Q1016
  • 171950Z AUTO 25009KT 9999 -RA FEW015 SCT021 BKN026 05/03 Q1016
  • 171920Z AUTO 25011KT 9999 FEW034 04/03 Q1015

TAF TAF EGGD
Valido dal 17 a 18 ore il 18 a 18 ore UTC


171706Z 1718/1818 25014KT 9999 SCT020
TEMPO 1718/1722 26015G30KT
PROB30
TEMPO 1718/1802 6000 SHRA BKN014
TEMPO 1802/1818 6000 SHRA BKN010
PROB40
TEMPO 1807/1815 24017G27KT
PROB30
TEMPO 1808/1818 4000 +SHRAGS BKN007
TEMPO 1815/1818 25018G28KT
PROB30
TEMPO 1815/1818 26022G38KT
ATIS : +44 1275 473 666



MetMap, La meteo Aeronautica in un colpo d'occhio ! - Copyright ORBIFLY Dicembre 2007 - Disclaimer

ORBIFLY MET'MAP TEAM :

Programmazione e sviluppo : Alexandra Zaïnal
Concezione : Baudouin d'Aumeries
Aiuto per la programmazione : Marc-Olivier Méhu
Supporto tecnico e logistico : Manuel Goepfert
Aiuto per la traduzione : Arnaldo La Scala

Contatto : metmap@orbifly.com




FONTI E CREDITI :

   NOAA